Portada
METAR-TAF:

METAR-TAF

Aeroports :

Rundu, Namíbia

latitud: 17-57-20S, longitud: 019-43-25E, altitud: 1106 m

Observació

L'informe es va fer fa 1 hora i 2 minuts, a les 01:00 UTC
Vent 3 kt del Sud
Temperatura 12°C
Humitat 44%
Pressió 1023 hPa

METAR: FYRU 180100Z AUTO 17003KT //// // ////// 12/00 Q1023

Hora: 04:02 (02:02 UTC)

Pronòstic

L'informe es va fer fa 9 hores i 2 minuts, a les 17:00 UTC
Pronòstic vàlid del 17 a les 18 UTC al 18 a les 03 UTC
Vent kt del Nord
Visibilitat 10 km o més
sense núvols per sota de 1500 mi sense presència de cumulonimbus.

TAF: FYRU 171700Z 1718/1803 00000KT CAVOK

Observacions i pronòstics meteorològics de més de 4000 aeroports (METAR i TAF).

Les estacions disponibles són els punts grocs i vermells al mapa.

Posi el ratolí al punt desitjat per veure el nom de l'estació.

Feu clic per veure les observacions i els pronòstics meteorològics.

Per canviar el mapa: feu clic els botons verds amb una creu de color negre per apropar; al botó verd amb un guió per allunyar la imatge; o en les fletxes verdes per a mapes adjacents.


METAR-TAF: